Time;durP1;ratioP1;P1;durP2;ratioP2;P2;SDS_P1;SDS_P2;PMS_P1;PMS_P2;Temp;Humidity;BMP_temperature;BMP_pressure;BME280_temperature;BME280_humidity;BME280_pressure;Samples;Min_cycle;Max_cycle;Signal;HPM_P1;HPM_P2
2023/08/10 00:01:50;;;;;;;3.03;2.63;;;21.90;74.30;;;;;;4976762;28;20037;-68
2023/08/10 00:04:19;;;;;;;3.03;2.60;;;21.90;74.20;;;;;;4980302;28;20050;-69
2023/08/10 00:06:47;;;;;;;3.35;2.47;;;21.90;74.20;;;;;;4980273;28;20492;-68
2023/08/10 00:09:14;;;;;;;4.90;2.70;;;21.90;74.10;;;;;;4980591;28;20019;-68
2023/08/10 00:11:40;;;;;;;4.45;3.05;;;21.90;74.20;;;;;;4980026;28;20062;-68
2023/08/10 00:14:07;;;;;;;3.33;2.63;;;21.90;74.10;;;;;;4980465;28;20019;-68
2023/08/10 00:16:33;;;;;;;2.75;2.50;;;21.90;74.10;;;;;;4980406;28;20101;-68
2023/08/10 00:19:01;;;;;;;3.60;2.67;;;21.90;74.20;;;;;;4979891;28;20033;-68
2023/08/10 00:21:31;;;;;;;3.53;2.70;;;21.90;74.10;;;;;;4979910;28;20059;-69
2023/08/10 00:23:57;;;;;;;3.47;2.50;;;21.90;74.20;;;;;;4979938;28;20018;-69
2023/08/10 00:26:24;;;;;;;3.40;2.97;;;21.90;74.20;;;;;;4979979;28;20026;-68
2023/08/10 00:28:51;;;;;;;4.18;2.50;;;21.90;74.00;;;;;;4980054;28;20052;-69
2023/08/10 00:31:17;;;;;;;3.05;2.67;;;21.90;74.10;;;;;;4980379;28;20105;-69
2023/08/10 00:33:43;;;;;;;3.10;2.50;;;21.90;74.00;;;;;;4979851;28;20065;-68
2023/08/10 00:36:11;;;;;;;2.72;2.40;;;21.80;74.00;;;;;;4980238;28;20027;-68
2023/08/10 00:38:40;;;;;;;2.63;2.28;;;21.80;74.00;;;;;;4979556;28;20018;-68
2023/08/10 00:41:08;;;;;;;4.97;2.47;;;21.80;74.10;;;;;;4979667;28;20133;-70
2023/08/10 00:43:37;;;;;;;3.03;2.33;;;21.80;74.20;;;;;;4979568;28;20019;-69
2023/08/10 00:46:03;;;;;;;3.50;2.50;;;21.80;74.20;;;;;;4979539;28;20454;-69
2023/08/10 00:48:31;;;;;;;2.63;2.30;;;21.80;74.20;;;;;;4979827;28;20037;-69
2023/08/10 00:51:00;;;;;;;3.30;2.30;;;21.70;74.20;;;;;;4979738;28;20572;-68
2023/08/10 00:53:30;;;;;;;3.55;2.40;;;21.70;74.30;;;;;;4979392;28;20045;-68
2023/08/10 00:55:57;;;;;;;2.50;2.30;;;21.70;74.30;;;;;;4979321;28;20110;-69
2023/08/10 00:58:24;;;;;;;3.78;2.60;;;21.70;74.40;;;;;;4979602;28;20461;-69
2023/08/10 01:00:50;;;;;;;2.40;2.20;;;21.70;74.30;;;;;;4979279;28;20026;-69
2023/08/10 01:03:17;;;;;;;3.88;2.15;;;21.70;74.40;;;;;;4979344;28;20101;-69
2023/08/10 01:06:22;;;;;;;4.70;2.30;;;21.70;74.30;;;;;;4978292;28;20030;-69
2023/08/10 01:08:48;;;;;;;2.58;2.30;;;21.70;74.60;;;;;;4977575;28;20484;-69
2023/08/10 01:12:01;;;;;;;4.35;2.30;;;21.70;74.40;;;;;;4979417;28;20117;-69
2023/08/10 01:14:44;;;;;;;3.67;2.05;;;21.70;74.50;;;;;;4939902;29;20131;-69
2023/08/10 01:17:18;;;;;;;2.58;2.00;;;21.60;74.50;;;;;;4940803;28;20031;-69
2023/08/10 01:19:48;;;;;;;2.92;2.08;;;21.60;74.30;;;;;;4940483;28;20331;-69
2023/08/10 01:22:50;;;;;;;3.03;2.17;;;21.60;74.20;;;;;;4940758;29;20099;-69
2023/08/10 01:25:20;;;;;;;4.10;2.33;;;21.70;74.30;;;;;;4940348;29;20475;-70
2023/08/10 01:27:47;;;;;;;2.42;2.20;;;21.60;74.20;;;;;;4940027;29;20031;-68
2023/08/10 01:30:15;;;;;;;2.95;2.30;;;21.60;74.30;;;;;;4940275;29;20454;-69
2023/08/10 01:32:43;;;;;;;3.42;2.45;;;21.60;74.40;;;;;;4940275;29;20051;-69
2023/08/10 01:35:12;;;;;;;3.85;2.40;;;21.50;74.50;;;;;;4940193;28;20091;-69
2023/08/10 01:37:38;;;;;;;2.08;1.88;;;21.50;74.50;;;;;;4940109;29;20039;-69
2023/08/10 01:40:09;;;;;;;2.97;2.03;;;21.50;74.60;;;;;;4940023;28;20028;-69
2023/08/10 01:42:43;;;;;;;3.53;2.45;;;21.50;74.70;;;;;;4940938;29;20110;-69
2023/08/10 01:45:10;;;;;;;2.90;2.30;;;21.40;74.70;;;;;;4939492;29;20113;-68
2023/08/10 01:48:13;;;;;;;3.30;2.10;;;21.40;74.80;;;;;;4939969;29;20047;-69
2023/08/10 01:50:44;;;;;;;2.40;2.10;;;21.40;75.10;;;;;;4940430;29;20023;-69
2023/08/10 01:53:27;;;;;;;2.75;2.40;;;21.40;74.90;;;;;;4939910;29;20259;-68
2023/08/10 01:55:57;;;;;;;3.22;2.28;;;21.40;74.90;;;;;;4940178;29;20036;-69
2023/08/10 01:58:25;;;;;;;2.95;2.17;;;21.40;74.90;;;;;;4939766;29;20123;-69
2023/08/10 02:01:03;;;;;;;2.30;2.10;;;21.30;75.00;;;;;;4939712;29;20430;-68
2023/08/10 02:03:31;;;;;;;3.53;2.38;;;21.30;75.10;;;;;;4940275;29;20502;-69
2023/08/10 02:06:08;;;;;;;4.03;2.67;;;21.30;75.20;;;;;;4939685;29;20028;-69
2023/08/10 02:08:38;;;;;;;3.45;2.33;;;21.20;75.20;;;;;;4939526;29;20454;-69
2023/08/10 02:11:11;;;;;;;3.63;3.13;;;21.20;75.30;;;;;;4940098;29;20086;-69
2023/08/10 02:13:39;;;;;;;4.03;2.45;;;21.20;75.40;;;;;;4974967;28;20068;-69
2023/08/10 02:16:06;;;;;;;3.42;2.58;;;21.10;75.50;;;;;;4978197;28;20361;-69
2023/08/10 02:18:32;;;;;;;3.70;2.63;;;21.10;75.60;;;;;;4978302;28;20106;-68
2023/08/10 02:21:00;;;;;;;2.67;2.47;;;21.10;75.60;;;;;;4977894;28;20114;-69
2023/08/10 02:23:29;;;;;;;3.80;2.58;;;21.10;75.70;;;;;;4978010;28;20031;-69
2023/08/10 02:25:58;;;;;;;3.70;3.10;;;21.10;75.80;;;;;;4977017;28;20026;-69
2023/08/10 02:28:24;;;;;;;3.40;2.78;;;21.00;75.80;;;;;;4978284;28;20151;-68
2023/08/10 02:30:50;;;;;;;4.88;2.85;;;21.10;75.80;;;;;;4977579;28;20058;-68
2023/08/10 02:33:18;;;;;;;4.32;3.20;;;21.00;75.80;;;;;;4977570;28;20070;-68
2023/08/10 02:35:46;;;;;;;3.03;2.72;;;21.10;75.80;;;;;;4978016;28;20030;-68
2023/08/10 02:38:12;;;;;;;3.50;2.83;;;21.10;75.80;;;;;;4977460;28;20452;-69
2023/08/10 02:40:38;;;;;;;3.38;2.72;;;21.00;75.80;;;;;;4977425;28;20023;-69
2023/08/10 02:43:09;;;;;;;5.68;3.67;;;21.00;75.80;;;;;;4977472;28;20113;-68
2023/08/10 02:45:36;;;;;;;4.75;3.47;;;21.00;76.00;;;;;;4977879;28;20279;-69
2023/08/10 02:48:01;;;;;;;6.65;2.72;;;21.00;76.00;;;;;;4977903;28;20038;-69
2023/08/10 02:50:32;;;;;;;2.65;2.45;;;20.90;75.90;;;;;;4977205;28;20027;-69
2023/08/10 02:52:58;;;;;;;5.53;2.83;;;21.00;75.90;;;;;;4977259;28;20369;-69
2023/08/10 02:55:26;;;;;;;4.07;2.95;;;20.90;75.90;;;;;;4977782;28;20464;-68
2023/08/10 02:57:53;;;;;;;4.25;2.60;;;20.90;75.80;;;;;;4977082;28;20065;-69
2023/08/10 03:00:28;;;;;;;4.03;2.90;;;20.90;75.80;;;;;;4977211;28;20031;-69
2023/08/10 03:02:57;;;;;;;4.25;2.75;;;21.00;75.80;;;;;;4977096;28;20433;-68
2023/08/10 03:05:23;;;;;;;4.28;2.60;;;21.00;75.80;;;;;;4977014;28;20408;-68
2023/08/10 03:07:49;;;;;;;4.32;2.58;;;20.90;75.80;;;;;;4977219;28;20098;-69
2023/08/10 03:10:17;;;;;;;3.45;2.90;;;20.90;75.80;;;;;;4977148;28;20030;-68
2023/08/10 03:12:43;;;;;;;6.20;3.13;;;21.00;75.70;;;;;;4976302;28;20508;-68
2023/08/10 03:15:11;;;;;;;6.30;3.28;;;20.90;75.80;;;;;;4977139;28;20117;-69
2023/08/10 03:17:38;;;;;;;2.90;2.70;;;20.90;75.80;;;;;;4977033;28;20039;-69
2023/08/10 03:20:12;;;;;;;5.22;3.60;;;20.90;75.80;;;;;;4976764;28;20033;-68
2023/08/10 03:22:39;;;;;;;7.28;4.28;;;20.90;75.80;;;;;;4977068;28;20034;-69
2023/08/10 03:25:05;;;;;;;8.90;4.50;;;20.80;76.70;;;;;;4977014;28;20174;-68
2023/08/10 03:27:38;;;;;;;6.47;3.70;;;20.80;76.40;;;;;;4976647;28;20067;-68
2023/08/10 03:30:06;;;;;;;6.80;4.35;;;20.70;76.40;;;;;;4976615;28;20034;-68
2023/08/10 03:32:31;;;;;;;6.15;4.45;;;20.70;76.30;;;;;;4976571;28;20090;-68
2023/08/10 03:34:57;;;;;;;6.72;4.68;;;20.60;76.50;;;;;;4976576;28;20034;-68
2023/08/10 03:37:23;;;;;;;9.20;5.25;;;20.60;76.50;;;;;;4976459;28;20030;-70
2023/08/10 03:39:49;;;;;;;5.93;4.38;;;20.60;76.70;;;;;;4976655;28;20023;-69
2023/08/10 03:42:24;;;;;;;5.72;4.15;;;20.60;76.80;;;;;;4976635;28;20027;-69
2023/08/10 03:44:51;;;;;;;5.03;3.63;;;20.50;76.70;;;;;;4976903;28;20031;-68
2023/08/10 03:47:19;;;;;;;4.90;3.58;;;20.50;76.60;;;;;;4976294;28;20114;-69
2023/08/10 03:49:45;;;;;;;6.53;4.07;;;20.60;76.70;;;;;;4976544;28;20045;-68
2023/08/10 03:52:13;;;;;;;5.03;3.47;;;20.50;76.70;;;;;;4976444;28;20412;-69
2023/08/10 03:54:40;;;;;;;6.45;3.80;;;20.60;76.80;;;;;;4976387;28;20054;-69
2023/08/10 03:57:06;;;;;;;3.42;3.08;;;20.60;76.80;;;;;;4976808;28;20114;-69
2023/08/10 03:59:32;;;;;;;4.95;3.58;;;20.60;76.70;;;;;;4976287;28;20098;-69
2023/08/10 04:02:00;;;;;;;4.28;3.55;;;20.60;76.70;;;;;;4976330;28;20027;-68
2023/08/10 04:04:26;;;;;;;9.25;3.53;;;20.60;76.60;;;;;;4976292;28;20099;-69
2023/08/10 04:06:52;;;;;;;6.00;4.28;;;20.70;76.60;;;;;;4976283;28;20362;-68
2023/08/10 04:09:20;;;;;;;5.63;3.90;;;20.70;76.70;;;;;;4976396;28;20023;-69
2023/08/10 04:11:48;;;;;;;3.95;3.53;;;20.80;76.70;;;;;;4969867;28;20066;-68
2023/08/10 04:14:15;;;;;;;4.97;3.90;;;20.80;76.70;;;;;;4957433;28;20446;-69
2023/08/10 04:16:54;;;;;;;5.53;4.20;;;20.80;76.70;;;;;;4957312;28;20032;-69
2023/08/10 04:19:20;;;;;;;5.13;3.55;;;20.80;76.70;;;;;;4956749;28;20099;-70
2023/08/10 04:21:48;;;;;;;5.35;3.97;;;20.80;76.60;;;;;;4957074;28;20027;-68
2023/08/10 04:24:16;;;;;;;4.10;3.67;;;20.90;76.60;;;;;;4956835;28;20020;-70
2023/08/10 04:26:45;;;;;;;4.45;3.92;;;20.90;76.60;;;;;;4956628;28;20054;-69
2023/08/10 04:29:16;;;;;;;5.50;4.38;;;20.90;76.60;;;;;;4957012;28;20024;-69
2023/08/10 04:31:42;;;;;;;6.35;4.95;;;20.90;76.50;;;;;;4956685;28;20343;-69
2023/08/10 04:34:11;;;;;;;5.82;3.78;;;20.90;76.50;;;;;;4956643;28;20042;-69
2023/08/10 04:36:37;;;;;;;5.05;3.80;;;20.90;76.40;;;;;;4957138;28;20358;-69
2023/08/10 04:39:03;;;;;;;6.38;4.03;;;20.90;76.40;;;;;;4956732;28;20035;-69
2023/08/10 04:41:31;;;;;;;5.65;3.90;;;20.90;76.40;;;;;;4956655;28;20027;-69
2023/08/10 04:43:59;;;;;;;6.18;4.30;;;20.90;76.60;;;;;;4957169;28;20126;-69
2023/08/10 04:46:25;;;;;;;6.80;4.88;;;21.00;76.60;;;;;;4956595;28;20019;-68
2023/08/10 04:48:51;;;;;;;5.70;4.35;;;21.00;76.80;;;;;;4957359;28;20028;-69
2023/08/10 04:51:19;;;;;;;7.53;4.47;;;20.90;76.70;;;;;;4960208;28;20027;-69
2023/08/10 04:53:47;;;;;;;6.13;4.85;;;21.00;76.60;;;;;;4960703;28;20031;-68
2023/08/10 04:56:13;;;;;;;5.65;4.35;;;21.00;76.60;;;;;;4960618;28;20099;-69
2023/08/10 04:58:41;;;;;;;6.43;5.05;;;21.00;76.50;;;;;;4960444;28;20031;-69
2023/08/10 05:01:15;;;;;;;6.72;4.75;;;21.00;76.60;;;;;;4959921;28;20038;-68
2023/08/10 05:03:43;;;;;;;4.93;4.03;;;21.00;76.70;;;;;;4959942;28;20402;-68
2023/08/10 05:06:15;;;;;;;5.80;4.05;;;21.00;76.60;;;;;;4959881;28;20085;-68
2023/08/10 05:08:41;;;;;;;6.32;4.90;;;21.10;76.50;;;;;;4959848;28;20114;-68
2023/08/10 05:11:07;;;;;;;6.30;4.60;;;21.10;76.60;;;;;;4960139;28;20054;-68
2023/08/10 05:13:34;;;;;;;6.20;4.50;;;21.20;76.60;;;;;;4959024;28;20381;-68
2023/08/10 05:16:01;;;;;;;5.65;4.82;;;21.10;76.40;;;;;;4960019;28;20028;-69
2023/08/10 05:18:28;;;;;;;5.53;4.55;;;21.20;76.40;;;;;;4959584;28;20500;-69
2023/08/10 05:20:57;;;;;;;7.32;5.03;;;21.20;76.30;;;;;;4959613;28;20062;-68
2023/08/10 05:23:23;;;;;;;9.32;5.32;;;21.30;76.40;;;;;;4959596;29;20469;-69
2023/08/10 05:25:51;;;;;;;6.80;5.28;;;21.30;76.40;;;;;;4960038;28;20019;-69
2023/08/10 05:28:18;;;;;;;7.15;5.00;;;21.40;76.20;;;;;;4959482;28;20038;-69
2023/08/10 05:30:43;;;;;;;8.05;5.45;;;21.50;76.20;;;;;;4959661;28;20042;-69
2023/08/10 05:33:10;;;;;;;9.90;5.05;;;21.60;76.00;;;;;;4959983;28;20031;-69
2023/08/10 05:35:36;;;;;;;8.82;4.93;;;22.00;76.00;;;;;;4959349;28;20037;-69
2023/08/10 05:38:02;;;;;;;9.05;4.00;;;22.50;74.70;;;;;;4959329;28;20027;-69
2023/08/10 05:40:29;;;;;;;8.15;5.00;;;22.70;74.10;;;;;;4959313;28;20023;-69
2023/08/10 05:42:56;;;;;;;5.45;4.47;;;22.70;73.40;;;;;;4959219;28;20031;-69
2023/08/10 05:45:22;;;;;;;6.53;3.95;;;22.60;73.10;;;;;;4958277;28;20480;-69
2023/08/10 05:47:50;;;;;;;4.95;3.50;;;22.50;73.00;;;;;;4959488;28;20035;-69
2023/08/10 05:50:16;;;;;;;5.88;3.80;;;22.40;73.10;;;;;;4959327;28;20032;-69
2023/08/10 05:52:45;;;;;;;3.55;3.25;;;22.30;72.80;;;;;;4959557;28;20053;-69
2023/08/10 05:55:12;;;;;;;5.18;3.42;;;22.30;72.70;;;;;;4958996;28;20063;-69
2023/08/10 05:57:39;;;;;;;4.20;2.97;;;22.20;72.70;;;;;;4959654;28;20027;-70
2023/08/10 06:00:07;;;;;;;3.50;3.03;;;22.20;72.70;;;;;;4958707;28;20023;-69
2023/08/10 06:02:32;;;;;;;5.47;3.70;;;22.20;72.70;;;;;;4958915;28;20027;-69
2023/08/10 06:04:59;;;;;;;4.35;3.20;;;22.20;72.40;;;;;;4959309;28;20023;-69
2023/08/10 06:07:27;;;;;;;4.38;3.10;;;22.30;72.30;;;;;;4958795;28;20031;-69
2023/08/10 06:09:53;;;;;;;3.70;2.85;;;22.40;72.10;;;;;;4958668;28;20488;-68
2023/08/10 06:12:24;;;;;;;4.38;3.20;;;22.40;71.90;;;;;;4958556;28;20058;-69
2023/08/10 06:14:50;;;;;;;4.80;3.00;;;22.50;71.30;;;;;;4958691;28;20028;-68
2023/08/10 06:17:16;;;;;;;4.15;3.03;;;22.60;70.90;;;;;;4958843;28;20082;-68
2023/08/10 06:19:51;;;;;;;4.10;2.92;;;22.60;70.80;;;;;;4957902;29;20023;-69
2023/08/10 06:22:17;;;;;;;3.72;2.80;;;22.70;70.10;;;;;;4958642;28;20153;-68
2023/08/10 06:24:43;;;;;;;4.88;3.00;;;22.80;69.80;;;;;;4958196;28;20023;-69
2023/08/10 06:27:10;;;;;;;5.50;3.00;;;23.10;69.10;;;;;;4958161;28;20023;-69
2023/08/10 06:29:35;;;;;;;5.63;2.90;;;23.40;68.20;;;;;;4958601;28;20023;-69
2023/08/10 06:32:08;;;;;;;3.85;2.70;;;23.40;67.60;;;;;;4958112;28;20023;-69
2023/08/10 06:34:34;;;;;;;2.67;2.47;;;23.30;67.60;;;;;;4958115;28;20031;-69
2023/08/10 06:37:00;;;;;;;3.03;2.60;;;23.30;67.80;;;;;;4958206;28;20023;-69
2023/08/10 06:39:27;;;;;;;4.57;2.60;;;23.20;67.60;;;;;;4957943;28;20030;-68
2023/08/10 06:41:53;;;;;;;3.97;2.63;;;23.10;68.00;;;;;;4957918;28;20023;-68
2023/08/10 06:44:22;;;;;;;3.83;2.65;;;23.10;68.20;;;;;;4958144;28;20023;-69
2023/08/10 06:46:48;;;;;;;2.83;2.63;;;23.10;67.70;;;;;;4958134;28;20027;-69
2023/08/10 06:49:16;;;;;;;5.28;2.90;;;23.10;67.80;;;;;;4957953;28;20078;-69
2023/08/10 06:51:42;;;;;;;4.63;2.85;;;23.10;67.90;;;;;;4957716;28;20050;-68
2023/08/10 06:54:08;;;;;;;3.08;2.53;;;23.20;67.90;;;;;;4957719;28;20020;-69
2023/08/10 06:56:34;;;;;;;4.38;2.42;;;23.30;68.00;;;;;;4957950;28;20031;-69
2023/08/10 06:59:01;;;;;;;3.38;2.72;;;23.40;68.00;;;;;;4957422;28;20038;-69
2023/08/10 07:01:26;;;;;;;4.22;2.60;;;23.60;66.60;;;;;;4958153;28;20031;-69
2023/08/10 07:03:54;;;;;;;3.85;2.92;;;23.70;66.10;;;;;;4958075;28;20019;-68
2023/08/10 07:06:19;;;;;;;3.80;2.50;;;23.70;66.30;;;;;;4958036;28;20430;-69
2023/08/10 07:08:52;;;;;;;3.47;2.65;;;23.70;66.10;;;;;;4958152;28;20030;-68
2023/08/10 07:11:21;;;;;;;3.55;2.45;;;23.70;66.20;;;;;;4957088;28;20122;-69
2023/08/10 07:13:48;;;;;;;3.50;2.50;;;23.70;66.10;;;;;;4956911;28;20362;-69
2023/08/10 07:16:15;;;;;;;3.30;2.45;;;23.70;66.30;;;;;;4957302;28;20381;-69
2023/08/10 07:18:43;;;;;;;4.00;2.70;;;23.70;66.30;;;;;;4957664;28;20027;-69
2023/08/10 07:21:09;;;;;;;4.07;2.60;;;23.70;66.10;;;;;;4957211;28;20050;-69
2023/08/10 07:23:35;;;;;;;3.90;2.70;;;23.80;66.20;;;;;;4957511;28;20371;-69
2023/08/10 07:26:01;;;;;;;4.38;2.75;;;23.80;66.20;;;;;;4957161;28;20514;-69
2023/08/10 07:28:27;;;;;;;3.72;2.78;;;23.90;66.20;;;;;;4957201;28;20488;-69
2023/08/10 07:30:55;;;;;;;3.00;2.70;;;23.90;65.90;;;;;;4957272;28;20039;-69
2023/08/10 07:33:24;;;;;;;4.35;2.85;;;23.90;65.50;;;;;;4956927;28;20063;-68
2023/08/10 07:35:50;;;;;;;4.85;2.50;;;24.00;65.50;;;;;;4957548;28;20347;-69
2023/08/10 07:38:16;;;;;;;3.70;2.72;;;24.10;65.50;;;;;;4957216;28;20123;-69
2023/08/10 07:40:43;;;;;;;3.15;2.45;;;24.20;64.70;;;;;;4957014;28;20443;-69
2023/08/10 07:43:12;;;;;;;4.78;2.92;;;24.20;64.20;;;;;;4956959;28;20026;-68
2023/08/10 07:45:38;;;;;;;3.50;2.60;;;24.30;64.20;;;;;;4956941;28;20438;-69
2023/08/10 07:48:04;;;;;;;3.90;2.42;;;24.40;64.20;;;;;;4956936;28;20035;-69
2023/08/10 07:50:33;;;;;;;3.33;2.67;;;24.50;63.80;;;;;;4956703;28;20406;-68
2023/08/10 07:52:59;;;;;;;4.05;2.33;;;24.60;63.10;;;;;;4956962;28;20097;-69
2023/08/10 07:55:25;;;;;;;4.07;2.50;;;24.70;63.10;;;;;;4957655;28;20035;-70
2023/08/10 07:57:51;;;;;;;4.30;2.60;;;24.90;62.70;;;;;;4957232;28;20026;-69
2023/08/10 08:00:20;;;;;;;4.90;2.63;;;24.90;62.20;;;;;;4957302;28;20031;-69
2023/08/10 08:02:50;;;;;;;3.35;2.20;;;25.00;61.80;;;;;;4957557;28;20023;-70
2023/08/10 08:05:18;;;;;;;3.80;2.30;;;25.10;61.20;;;;;;4957564;28;20121;-69
2023/08/10 08:07:44;;;;;;;3.50;2.50;;;25.30;61.40;;;;;;4957070;28;20058;-69
2023/08/10 08:10:12;;;;;;;3.80;2.53;;;25.40;61.20;;;;;;4956992;28;20379;-69
2023/08/10 08:12:39;;;;;;;2.60;2.20;;;25.70;60.70;;;;;;4956703;28;20082;-69
2023/08/10 08:15:05;;;;;;;3.75;2.50;;;26.00;60.40;;;;;;4957212;28;20111;-70
2023/08/10 08:18:08;;;;;;;6.03;2.53;;;26.30;59.40;;;;;;4956882;28;20442;-69
2023/08/10 08:20:36;;;;;;;3.03;2.10;;;26.60;59.10;;;;;;4957440;29;20023;-70
2023/08/10 08:23:08;;;;;;;3.20;2.20;;;26.90;58.20;;;;;;4956709;28;20262;-68
2023/08/10 08:25:36;;;;;;;3.80;2.30;;;27.20;56.80;;;;;;4959957;28;20027;-69
2023/08/10 08:28:05;;;;;;;3.03;2.40;;;27.50;56.80;;;;;;4960681;28;20042;-70
2023/08/10 08:30:33;;;;;;;3.58;2.30;;;27.70;55.10;;;;;;4960569;28;20135;-69
2023/08/10 08:32:59;;;;;;;3.00;2.33;;;27.80;54.90;;;;;;4959529;28;20101;-69
2023/08/10 08:35:26;;;;;;;4.47;2.42;;;27.90;54.00;;;;;;4960543;28;20063;-69
2023/08/10 08:37:52;;;;;;;4.00;2.25;;;27.90;54.30;;;;;;4961849;28;20130;-69
2023/08/10 08:40:19;;;;;;;4.47;2.13;;;27.80;53.70;;;;;;4968855;28;20026;-69
2023/08/10 08:42:48;;;;;;;6.10;2.45;;;27.80;53.20;;;;;;4960805;28;20039;-69
2023/08/10 08:45:17;;;;;;;3.08;2.00;;;27.70;53.30;;;;;;4959324;28;20473;-69
2023/08/10 08:47:44;;;;;;;2.60;1.90;;;27.70;53.70;;;;;;4959078;28;20475;-69
2023/08/10 08:50:11;;;;;;;4.20;2.05;;;27.70;53.00;;;;;;4960442;28;20113;-68
2023/08/10 08:52:43;;;;;;;4.85;2.15;;;27.60;52.10;;;;;;4960253;28;20054;-69
2023/08/10 08:55:13;;;;;;;2.95;2.33;;;27.50;51.30;;;;;;4960504;28;20038;-69
2023/08/10 08:57:39;;;;;;;5.55;2.40;;;27.40;51.90;;;;;;4960471;28;20501;-69
2023/08/10 09:00:06;;;;;;;3.40;2.25;;;27.40;52.10;;;;;;4960110;28;20019;-69
2023/08/10 09:02:33;;;;;;;2.58;2.10;;;27.50;52.10;;;;;;4960634;28;20031;-69
2023/08/10 09:04:59;;;;;;;2.42;2.17;;;27.80;51.80;;;;;;4960028;29;20078;-69
2023/08/10 09:07:29;;;;;;;4.13;2.45;;;27.90;51.00;;;;;;4960019;28;20031;-69
2023/08/10 09:09:56;;;;;;;3.95;2.10;;;28.00;51.00;;;;;;4959948;28;20020;-69
2023/08/10 09:12:36;;;;;;;3.38;2.30;;;28.00;50.90;;;;;;4958862;28;20090;-68
2023/08/10 09:15:11;;;;;;;4.45;2.42;;;28.00;49.80;;;;;;4959814;28;20031;-69
2023/08/10 09:17:46;;;;;;;3.75;2.05;;;28.00;49.50;;;;;;4960321;28;20039;-69
2023/08/10 09:20:23;;;;;;;4.25;2.13;;;28.00;50.10;;;;;;4959671;28;20067;-69
2023/08/10 09:22:52;;;;;;;3.45;2.10;;;28.20;49.90;;;;;;4960235;28;20065;-69
2023/08/10 09:25:19;;;;;;;2.60;1.77;;;28.30;50.10;;;;;;4959734;28;20024;-69
2023/08/10 09:27:47;;;;;;;7.55;2.42;;;28.40;50.40;;;;;;4958643;29;20027;-69
2023/08/10 09:30:20;;;;;;;5.03;2.67;;;28.20;49.70;;;;;;4959540;28;20027;-69
2023/08/10 09:32:46;;;;;;;3.10;2.13;;;28.10;49.20;;;;;;4960113;28;20426;-69
2023/08/10 09:35:17;;;;;;;7.57;2.63;;;27.90;49.90;;;;;;4959042;28;20027;-69
2023/08/10 09:37:44;;;;;;;4.88;2.40;;;27.90;50.20;;;;;;4960244;28;20027;-69
2023/08/10 09:40:14;;;;;;;3.45;2.25;;;27.90;50.40;;;;;;4959853;28;20035;-69
2023/08/10 09:42:40;;;;;;;4.43;2.20;;;28.00;49.90;;;;;;4959679;28;20027;-69
2023/08/10 09:45:15;;;;;;;2.92;2.10;;;28.00;50.20;;;;;;4959598;28;20550;-69
2023/08/10 09:47:43;;;;;;;3.22;2.20;;;28.10;49.70;;;;;;4959864;28;20023;-69
2023/08/10 09:50:14;;;;;;;3.13;2.20;;;28.10;49.50;;;;;;4959400;29;20027;-69
2023/08/10 09:52:41;;;;;;;2.47;2.10;;;28.10;49.80;;;;;;4959237;28;20027;-69
2023/08/10 09:55:08;;;;;;;2.35;1.95;;;28.00;49.80;;;;;;4959412;28;20135;-69
2023/08/10 09:57:40;;;;;;;3.85;2.53;;;28.10;50.10;;;;;;4959095;28;20031;-70
2023/08/10 10:00:15;;;;;;;6.10;2.42;;;28.10;49.90;;;;;;4959309;28;20162;-69
2023/08/10 10:02:48;;;;;;;3.30;2.30;;;28.00;49.20;;;;;;4958935;28;20138;-69
2023/08/10 10:05:21;;;;;;;4.22;2.38;;;27.90;49.10;;;;;;4959509;28;20038;-69
2023/08/10 10:07:48;;;;;;;5.10;2.05;;;27.70;49.20;;;;;;4958849;28;20101;-69
2023/08/10 10:10:16;;;;;;;7.60;2.88;;;27.70;49.90;;;;;;4958841;28;20362;-69
2023/08/10 10:12:45;;;;;;;3.28;2.42;;;27.60;49.80;;;;;;4958570;28;20064;-69
2023/08/10 10:15:12;;;;;;;4.57;2.20;;;27.60;50.60;;;;;;4942272;29;20444;-69
2023/08/10 10:17:41;;;;;;;3.75;2.08;;;27.70;50.00;;;;;;4958702;28;20027;-69
2023/08/10 10:20:11;;;;;;;2.95;2.22;;;27.80;50.00;;;;;;4958630;28;20039;-68
2023/08/10 10:22:38;;;;;;;1.85;1.73;;;27.60;48.00;;;;;;4958669;28;20103;-69
2023/08/10 10:25:04;;;;;;;3.42;2.30;;;27.40;48.70;;;;;;4958628;28;20023;-68
2023/08/10 10:27:40;;;;;;;2.97;2.22;;;27.30;48.30;;;;;;4959120;28;20031;-69
2023/08/10 10:30:15;;;;;;;2.22;2.03;;;27.20;48.90;;;;;;4959026;28;20035;-69
2023/08/10 10:32:47;;;;;;;3.50;2.40;;;27.30;49.30;;;;;;4958346;28;20027;-69
2023/08/10 10:35:23;;;;;;;2.88;2.20;;;27.40;49.40;;;;;;4958980;28;20027;-69
2023/08/10 10:37:57;;;;;;;4.43;2.35;;;27.40;47.50;;;;;;4958329;28;20034;-69
2023/08/10 10:40:24;;;;;;;3.47;2.33;;;27.30;47.90;;;;;;4958520;28;20499;-69
2023/08/10 10:43:02;;;;;;;3.10;2.30;;;27.30;48.50;;;;;;4958499;28;20023;-69
2023/08/10 10:45:36;;;;;;;5.30;2.30;;;27.40;48.70;;;;;;4958733;28;20023;-69
2023/08/10 10:48:04;;;;;;;2.88;2.30;;;27.60;48.80;;;;;;4957331;28;20059;-69
2023/08/10 10:50:31;;;;;;;3.97;2.20;;;27.70;49.20;;;;;;4958015;28;20035;-69
2023/08/10 10:53:02;;;;;;;6.38;2.40;;;27.90;49.10;;;;;;4958651;28;20054;-68
2023/08/10 10:55:42;;;;;;;6.75;2.50;;;28.00;47.90;;;;;;4958551;28;20095;-68
2023/08/10 10:58:10;;;;;;;2.33;2.05;;;28.00;47.00;;;;;;4958518;28;20031;-68
2023/08/10 11:00:37;;;;;;;4.38;2.50;;;27.90;47.90;;;;;;4957920;28;20058;-68
2023/08/10 11:03:05;;;;;;;4.65;2.50;;;27.80;46.60;;;;;;4957247;29;20023;-69
2023/08/10 11:05:32;;;;;;;4.30;2.25;;;27.80;47.40;;;;;;4958102;28;20473;-68
2023/08/10 11:08:07;;;;;;;5.57;2.53;;;27.90;47.30;;;;;;4956825;29;20520;-69
2023/08/10 11:10:35;;;;;;;4.88;2.53;;;27.80;48.00;;;;;;4958151;28;20031;-68
2023/08/10 11:13:07;;;;;;;2.92;2.33;;;27.90;48.30;;;;;;4957593;28;20127;-68
2023/08/10 11:15:34;;;;;;;3.00;2.35;;;27.90;48.10;;;;;;4958257;28;20031;-69
2023/08/10 11:18:08;;;;;;;3.10;2.30;;;28.00;47.60;;;;;;4956698;29;20078;-69
2023/08/10 11:20:45;;;;;;;3.15;2.25;;;28.10;47.30;;;;;;4957688;28;20038;-68
2023/08/10 11:23:11;;;;;;;3.45;2.30;;;28.20;46.90;;;;;;4957497;28;20089;-68
2023/08/10 11:25:49;;;;;;;4.00;2.38;;;28.30;45.60;;;;;;4956864;29;20023;-69
2023/08/10 11:28:18;;;;;;;4.15;2.72;;;28.30;45.70;;;;;;4956527;29;20058;-69
2023/08/10 11:30:45;;;;;;;3.08;2.30;;;28.30;45.50;;;;;;4956737;28;20031;-68
2023/08/10 11:33:11;;;;;;;4.82;2.05;;;28.20;46.40;;;;;;4957908;28;20039;-68
2023/08/10 11:35:41;;;;;;;3.45;2.35;;;28.30;46.60;;;;;;4957430;28;20456;-68
2023/08/10 11:38:09;;;;;;;3.95;2.28;;;28.40;46.40;;;;;;4957214;28;20499;-69
2023/08/10 11:40:35;;;;;;;4.57;2.33;;;28.40;46.10;;;;;;4957477;28;20054;-69
2023/08/10 11:43:08;;;;;;;3.80;2.30;;;28.50;45.80;;;;;;4957187;29;20027;-68
2023/08/10 11:45:40;;;;;;;3.53;2.45;;;28.70;45.90;;;;;;4957521;28;20035;-67
2023/08/10 11:48:11;;;;;;;6.03;2.90;;;28.60;44.70;;;;;;4956698;29;20554;-69
2023/08/10 11:50:38;;;;;;;3.30;2.30;;;28.50;44.60;;;;;;4957453;28;20023;-68
2023/08/10 11:53:22;;;;;;;3.53;2.42;;;28.50;45.30;;;;;;4957175;28;20050;-69
2023/08/10 11:55:53;;;;;;;5.72;2.60;;;28.60;45.10;;;;;;4957102;28;20090;-68
2023/08/10 11:58:21;;;;;;;4.22;2.65;;;28.70;45.70;;;;;;4956775;28;20042;-68
2023/08/10 12:00:55;;;;;;;3.45;2.28;;;28.60;45.90;;;;;;4956950;28;20102;-69
2023/08/10 12:03:26;;;;;;;3.45;2.35;;;28.60;45.70;;;;;;4957049;28;20095;-69
2023/08/10 12:06:18;;;;;;;2.90;2.50;;;28.70;46.10;;;;;;4957498;28;20350;-69
2023/08/10 12:08:46;;;;;;;3.95;2.65;;;28.90;45.50;;;;;;4957014;28;20427;-68
2023/08/10 12:11:14;;;;;;;4.53;2.75;;;28.90;45.60;;;;;;4956967;28;20382;-68
2023/08/10 12:13:47;;;;;;;3.95;2.50;;;28.80;45.50;;;;;;4955758;28;20478;-68
2023/08/10 12:16:20;;;;;;;3.15;2.53;;;28.90;46.10;;;;;;4956940;28;20114;-68
2023/08/10 12:18:47;;;;;;;3.58;2.47;;;28.90;46.00;;;;;;4957096;28;20023;-69
2023/08/10 12:21:13;;;;;;;3.88;2.65;;;28.90;45.60;;;;;;4955970;29;20066;-69
2023/08/10 12:23:42;;;;;;;2.90;2.47;;;28.90;45.80;;;;;;4956869;28;20357;-69
2023/08/10 12:26:13;;;;;;;6.00;2.70;;;28.90;45.90;;;;;;4956848;28;20469;-69
2023/08/10 12:28:41;;;;;;;4.30;2.70;;;28.90;46.00;;;;;;4956717;28;20361;-69
2023/08/10 12:31:09;;;;;;;4.47;2.30;;;28.90;46.10;;;;;;4956791;28;20114;-68
2023/08/10 12:33:35;;;;;;;4.28;2.30;;;28.90;46.30;;;;;;4955768;29;20039;-69
2023/08/10 12:36:02;;;;;;;4.15;2.60;;;28.90;46.40;;;;;;4956702;28;20106;-68
2023/08/10 12:38:28;;;;;;;4.18;2.78;;;29.10;46.30;;;;;;4956681;28;20083;-68
2023/08/10 12:40:58;;;;;;;4.57;2.90;;;29.30;45.80;;;;;;4956675;28;20024;-68
2023/08/10 12:43:27;;;;;;;4.03;2.60;;;29.40;45.40;;;;;;4956620;28;20035;-68
2023/08/10 12:45:53;;;;;;;3.33;2.50;;;29.40;45.40;;;;;;4956675;28;20079;-68
2023/08/10 12:48:20;;;;;;;4.00;2.35;;;29.40;45.40;;;;;;4956803;28;20465;-69
2023/08/10 12:50:46;;;;;;;3.80;2.70;;;29.40;45.50;;;;;;4956501;28;20027;-69
2023/08/10 12:53:16;;;;;;;3.00;2.60;;;29.40;45.40;;;;;;4956623;29;20110;-68
2023/08/10 12:55:43;;;;;;;3.40;2.60;;;29.10;45.30;;;;;;4956502;28;20040;-68
2023/08/10 12:58:11;;;;;;;3.60;2.20;;;28.90;45.60;;;;;;4955457;29;20039;-69